sensor_id;sensor_type;location;lat;lon;timestamp;temperature;humidity
74220;DHT22;62580;54.416;11.120;2022-12-07T00:08:04;17.90;47.30
74220;DHT22;62580;54.416;11.120;2022-12-07T00:18:06;17.90;47.30
74220;DHT22;62580;54.416;11.120;2022-12-07T00:28:06;17.80;47.40
74220;DHT22;62580;54.416;11.120;2022-12-07T00:38:08;17.80;47.50
74220;DHT22;62580;54.416;11.120;2022-12-07T00:48:09;17.80;47.30
74220;DHT22;62580;54.416;11.120;2022-12-07T00:58:11;17.90;47.90
74220;DHT22;62580;54.416;11.120;2022-12-07T01:08:11;17.90;47.30
74220;DHT22;62580;54.416;11.120;2022-12-07T01:18:13;17.90;47.30
74220;DHT22;62580;54.416;11.120;2022-12-07T01:28:14;17.90;47.30
74220;DHT22;62580;54.416;11.120;2022-12-07T01:38:16;17.80;47.30
74220;DHT22;62580;54.416;11.120;2022-12-07T01:48:19;17.90;47.30
74220;DHT22;62580;54.416;11.120;2022-12-07T01:58:23;17.90;47.40
74220;DHT22;62580;54.416;11.120;2022-12-07T02:08:24;17.80;47.30
74220;DHT22;62580;54.416;11.120;2022-12-07T02:18:38;17.90;47.30
74220;DHT22;62580;54.416;11.120;2022-12-07T02:28:56;17.90;47.20
74220;DHT22;62580;54.416;11.120;2022-12-07T02:39:06;17.90;47.30
74220;DHT22;62580;54.416;11.120;2022-12-07T02:49:09;17.80;47.20
74220;DHT22;62580;54.416;11.120;2022-12-07T02:59:17;17.80;47.30
74220;DHT22;62580;54.416;11.120;2022-12-07T03:09:28;17.70;47.20
74220;DHT22;62580;54.416;11.120;2022-12-07T03:19:33;17.80;47.30
74220;DHT22;62580;54.416;11.120;2022-12-07T03:29:38;17.80;47.20
74220;DHT22;62580;54.416;11.120;2022-12-07T03:39:45;17.90;47.30
74220;DHT22;62580;54.416;11.120;2022-12-07T03:49:53;17.90;47.30
74220;DHT22;62580;54.416;11.120;2022-12-07T03:59:56;17.90;47.30
74220;DHT22;62580;54.416;11.120;2022-12-07T04:09:58;17.90;47.20
74220;DHT22;62580;54.416;11.120;2022-12-07T04:19:59;17.90;47.30
74220;DHT22;62580;54.416;11.120;2022-12-07T04:30:01;17.90;47.20
74220;DHT22;62580;54.416;11.120;2022-12-07T04:40:02;17.90;47.20
74220;DHT22;62580;54.416;11.120;2022-12-07T04:50:06;17.90;47.10
74220;DHT22;62580;54.416;11.120;2022-12-07T05:00:08;17.90;47.20
74220;DHT22;62580;54.416;11.120;2022-12-07T05:10:11;17.90;47.10
74220;DHT22;62580;54.416;11.120;2022-12-07T05:20:12;17.90;47.20
74220;DHT22;62580;54.416;11.120;2022-12-07T05:30:15;17.90;47.20
74220;DHT22;62580;54.416;11.120;2022-12-07T05:40:17;17.90;47.10
74220;DHT22;62580;54.416;11.120;2022-12-07T05:50:19;17.90;47.10
74220;DHT22;62580;54.416;11.120;2022-12-07T06:00:20;17.90;47.00
74220;DHT22;62580;54.416;11.120;2022-12-07T06:10:22;17.90;47.10
74220;DHT22;62580;54.416;11.120;2022-12-07T06:20:23;17.90;47.00
74220;DHT22;62580;54.416;11.120;2022-12-07T06:30:25;17.90;47.00
74220;DHT22;62580;54.416;11.120;2022-12-07T06:40:26;17.90;47.00
74220;DHT22;62580;54.416;11.120;2022-12-07T06:50:28;17.90;47.10
74220;DHT22;62580;54.416;11.120;2022-12-07T07:00:28;17.90;47.10
74220;DHT22;62580;54.416;11.120;2022-12-07T07:10:30;17.90;47.10
74220;DHT22;62580;54.416;11.120;2022-12-07T07:20:31;17.90;47.00
74220;DHT22;62580;54.416;11.120;2022-12-07T07:30:33;17.90;47.00
74220;DHT22;62580;54.416;11.120;2022-12-07T07:40:34;17.90;46.90
74220;DHT22;62580;54.416;11.120;2022-12-07T07:50:37;17.90;47.00
74220;DHT22;62580;54.416;11.120;2022-12-07T08:00:37;17.90;46.90
74220;DHT22;62580;54.416;11.120;2022-12-07T08:10:39;17.90;46.90
74220;DHT22;62580;54.416;11.120;2022-12-07T08:20:41;17.90;46.80
74220;DHT22;62580;54.416;11.120;2022-12-07T08:30:43;17.90;46.80
74220;DHT22;62580;54.416;11.120;2022-12-07T08:40:43;17.90;46.80
74220;DHT22;62580;54.416;11.120;2022-12-07T08:50:45;17.90;46.70
74220;DHT22;62580;54.416;11.120;2022-12-07T09:00:46;17.90;46.80
74220;DHT22;62580;54.416;11.120;2022-12-07T09:10:48;17.80;46.60
74220;DHT22;62580;54.416;11.120;2022-12-07T09:20:49;17.90;46.60
74220;DHT22;62580;54.416;11.120;2022-12-07T09:30:50;17.90;46.60
74220;DHT22;62580;54.416;11.120;2022-12-07T09:40:51;17.90;46.50
74220;DHT22;62580;54.416;11.120;2022-12-07T09:50:54;17.90;46.50
74220;DHT22;62580;54.416;11.120;2022-12-07T10:01:00;17.80;46.50
74220;DHT22;62580;54.416;11.120;2022-12-07T10:11:02;17.80;46.50
74220;DHT22;62580;54.416;11.120;2022-12-07T10:21:10;17.80;46.50
74220;DHT22;62580;54.416;11.120;2022-12-07T10:31:18;17.80;46.50
74220;DHT22;62580;54.416;11.120;2022-12-07T10:41:19;17.80;46.40
74220;DHT22;62580;54.416;11.120;2022-12-07T10:51:26;17.80;46.30
74220;DHT22;62580;54.416;11.120;2022-12-07T11:01:33;17.90;46.20
74220;DHT22;62580;54.416;11.120;2022-12-07T11:11:46;17.90;46.20
74220;DHT22;62580;54.416;11.120;2022-12-07T11:21:56;17.90;46.30
74220;DHT22;62580;54.416;11.120;2022-12-07T11:32:04;17.80;46.10
74220;DHT22;62580;54.416;11.120;2022-12-07T11:42:13;17.80;46.70
74220;DHT22;62580;54.416;11.120;2022-12-07T11:52:22;17.80;46.00
74220;DHT22;62580;54.416;11.120;2022-12-07T12:02:32;17.80;45.90
74220;DHT22;62580;54.416;11.120;2022-12-07T12:12:50;17.90;46.10
74220;DHT22;62580;54.416;11.120;2022-12-07T12:22:59;17.80;46.00
74220;DHT22;62580;54.416;11.120;2022-12-07T12:33:05;17.80;46.00
74220;DHT22;62580;54.416;11.120;2022-12-07T12:43:41;17.80;46.00
74220;DHT22;62580;54.416;11.120;2022-12-07T12:53:50;17.80;45.90
74220;DHT22;62580;54.416;11.120;2022-12-07T13:03:52;17.80;46.00
74220;DHT22;62580;54.416;11.120;2022-12-07T13:24:34;17.90;45.90
74220;DHT22;62580;54.416;11.120;2022-12-07T13:34:39;17.80;45.90
74220;DHT22;62580;54.416;11.120;2022-12-07T13:44:40;17.80;45.80
74220;DHT22;62580;54.416;11.120;2022-12-07T13:54:45;17.80;46.00
74220;DHT22;62580;54.416;11.120;2022-12-07T14:04:46;17.80;46.10
74220;DHT22;62580;54.416;11.120;2022-12-07T14:14:50;17.80;46.00
74220;DHT22;62580;54.416;11.120;2022-12-07T14:24:57;17.80;45.90
74220;DHT22;62580;54.416;11.120;2022-12-07T14:35:09;17.90;45.90
74220;DHT22;62580;54.416;11.120;2022-12-07T14:45:14;17.90;45.80
74220;DHT22;62580;54.416;11.120;2022-12-07T14:55:22;17.80;45.90
74220;DHT22;62580;54.416;11.120;2022-12-07T15:05:23;17.80;45.80
74220;DHT22;62580;54.416;11.120;2022-12-07T15:15:25;17.80;45.80
74220;DHT22;62580;54.416;11.120;2022-12-07T15:25:26;17.80;45.90
74220;DHT22;62580;54.416;11.120;2022-12-07T15:35:28;17.80;45.90
74220;DHT22;62580;54.416;11.120;2022-12-07T15:45:28;17.90;45.90
74220;DHT22;62580;54.416;11.120;2022-12-07T15:55:30;17.90;45.70
74220;DHT22;62580;54.416;11.120;2022-12-07T16:05:31;17.90;45.80
74220;DHT22;62580;54.416;11.120;2022-12-07T16:15:37;17.80;45.70
74220;DHT22;62580;54.416;11.120;2022-12-07T16:25:38;17.80;45.70
74220;DHT22;62580;54.416;11.120;2022-12-07T16:35:40;17.80;45.70
74220;DHT22;62580;54.416;11.120;2022-12-07T16:45:41;17.80;45.70
74220;DHT22;62580;54.416;11.120;2022-12-07T16:55:44;17.80;45.70
74220;DHT22;62580;54.416;11.120;2022-12-07T17:05:46;17.80;45.80
74220;DHT22;62580;54.416;11.120;2022-12-07T17:15:56;17.80;46.40
74220;DHT22;62580;54.416;11.120;2022-12-07T17:26:04;17.90;45.80
74220;DHT22;62580;54.416;11.120;2022-12-07T17:36:11;17.80;45.60
74220;DHT22;62580;54.416;11.120;2022-12-07T17:46:11;17.90;45.70
74220;DHT22;62580;54.416;11.120;2022-12-07T17:56:13;17.80;45.70
74220;DHT22;62580;54.416;11.120;2022-12-07T18:06:14;17.80;45.70
74220;DHT22;62580;54.416;11.120;2022-12-07T18:16:18;17.80;45.70
74220;DHT22;62580;54.416;11.120;2022-12-07T18:26:21;17.80;45.70
74220;DHT22;62580;54.416;11.120;2022-12-07T18:36:25;17.80;45.70
74220;DHT22;62580;54.416;11.120;2022-12-07T18:46:26;17.80;45.70
74220;DHT22;62580;54.416;11.120;2022-12-07T18:56:28;17.80;45.70
74220;DHT22;62580;54.416;11.120;2022-12-07T19:06:29;17.80;45.60
74220;DHT22;62580;54.416;11.120;2022-12-07T19:16:31;17.80;46.40
74220;DHT22;62580;54.416;11.120;2022-12-07T19:26:32;17.80;45.70
74220;DHT22;62580;54.416;11.120;2022-12-07T19:36:34;17.80;45.80
74220;DHT22;62580;54.416;11.120;2022-12-07T19:46:34;17.80;45.70
74220;DHT22;62580;54.416;11.120;2022-12-07T19:56:42;17.80;45.70
74220;DHT22;62580;54.416;11.120;2022-12-07T20:06:43;17.80;45.60
74220;DHT22;62580;54.416;11.120;2022-12-07T20:16:45;17.80;45.70
74220;DHT22;62580;54.416;11.120;2022-12-07T20:26:47;17.80;45.70
74220;DHT22;62580;54.416;11.120;2022-12-07T20:36:49;17.80;45.70
74220;DHT22;62580;54.416;11.120;2022-12-07T20:46:49;17.80;45.70
74220;DHT22;62580;54.416;11.120;2022-12-07T20:56:51;17.80;45.80
74220;DHT22;62580;54.416;11.120;2022-12-07T21:06:52;17.80;45.70
74220;DHT22;62580;54.416;11.120;2022-12-07T21:16:55;17.80;45.60
74220;DHT22;62580;54.416;11.120;2022-12-07T21:26:55;17.90;45.60
74220;DHT22;62580;54.416;11.120;2022-12-07T21:36:57;17.90;45.70
74220;DHT22;62580;54.416;11.120;2022-12-07T21:46:58;17.80;45.70
74220;DHT22;62580;54.416;11.120;2022-12-07T21:57:00;17.80;45.70
74220;DHT22;62580;54.416;11.120;2022-12-07T22:07:00;17.80;45.60
74220;DHT22;62580;54.416;11.120;2022-12-07T22:17:02;17.80;45.60
74220;DHT22;62580;54.416;11.120;2022-12-07T22:27:03;17.80;45.60
74220;DHT22;62580;54.416;11.120;2022-12-07T22:37:05;17.80;45.60
74220;DHT22;62580;54.416;11.120;2022-12-07T22:47:06;17.80;45.60
74220;DHT22;62580;54.416;11.120;2022-12-07T22:57:08;17.80;45.60
74220;DHT22;62580;54.416;11.120;2022-12-07T23:07:08;17.80;45.60
74220;DHT22;62580;54.416;11.120;2022-12-07T23:17:10;17.80;45.60
74220;DHT22;62580;54.416;11.120;2022-12-07T23:27:11;17.80;45.60
74220;DHT22;62580;54.416;11.120;2022-12-07T23:37:13;17.80;45.60
74220;DHT22;62580;54.416;11.120;2022-12-07T23:47:13;17.80;45.60
74220;DHT22;62580;54.416;11.120;2022-12-07T23:57:15;17.80;45.60
